Time;durP1;ratioP1;P1;durP2;ratioP2;P2;SDS_P1;SDS_P2;PMS_P1;PMS_P2;Temp;Humidity;BMP_temperature;BMP_pressure;BME280_temperature;BME280_humidity;BME280_pressure;Samples;Min_cycle;Max_cycle;Signal;HPM_P1;HPM_P2
2022/03/08 00:01:42;;;;;;;5.93;3.47;;;;;;;-0.58;61.06;99333.56;5087970;28;20032;-57
2022/03/08 00:04:07;;;;;;;5.82;3.75;;;;;;;-0.69;61.13;99341.06;5087358;28;20496;-61
2022/03/08 00:06:33;;;;;;;5.68;3.53;;;;;;;-0.79;61.19;99338.78;5087362;28;20051;-63
2022/03/08 00:08:58;;;;;;;5.25;3.47;;;;;;;-0.97;60.84;99322.00;5087430;28;20036;-60
2022/03/08 00:11:24;;;;;;;7.53;3.33;;;;;;;-0.83;60.29;99357.41;5087214;28;20393;-61
2022/03/08 00:13:51;;;;;;;5.97;3.03;;;;;;;-0.86;60.08;99363.63;5087375;28;20076;-60
2022/03/08 00:16:18;;;;;;;7.38;3.90;;;;;;;-0.93;60.34;99356.91;5087201;28;20028;-61
2022/03/08 00:18:44;;;;;;;5.60;3.30;;;;;;;-1.06;60.28;99354.78;5087068;28;20474;-62
2022/03/08 00:21:13;;;;;;;4.60;2.97;;;;;;;-1.17;60.51;99364.88;5087155;28;20032;-61
2022/03/08 00:23:39;;;;;;;5.38;3.20;;;;;;;-1.28;59.97;99364.41;5086911;28;20158;-62
2022/03/08 00:26:05;;;;;;;5.18;3.30;;;;;;;-1.27;59.77;99366.13;5069365;28;20107;-61
2022/03/08 00:28:31;;;;;;;5.40;3.13;;;;;;;-1.42;60.63;99367.59;5086743;28;20094;-60
2022/03/08 00:30:57;;;;;;;7.47;3.65;;;;;;;-1.44;59.97;99375.53;5073982;28;20497;-58
2022/03/08 00:33:23;;;;;;;6.85;3.53;;;;;;;-1.59;60.25;99384.84;5073947;28;20497;-62
2022/03/08 00:35:50;;;;;;;7.43;3.20;;;;;;;-1.61;59.88;99371.78;5073529;28;20039;-62
2022/03/08 00:38:16;;;;;;;7.57;3.72;;;;;;;-1.73;60.51;99380.09;5072985;28;20102;-60
2022/03/08 00:40:42;;;;;;;7.35;3.47;;;;;;;-1.98;60.39;99339.03;5073610;28;20423;-63
2022/03/08 00:43:07;;;;;;;7.00;3.17;;;;;;;-1.67;59.81;99374.66;5073425;28;20024;-63
2022/03/08 00:45:33;;;;;;;6.00;3.38;;;;;;;-1.70;59.89;99389.63;5055105;28;20393;-62
2022/03/08 00:47:59;;;;;;;4.40;2.45;;;;;;;-1.81;60.28;99379.53;5073573;28;20032;-56
2022/03/08 00:50:27;;;;;;;5.50;3.33;;;;;;;-1.81;60.04;99392.66;5055999;28;20106;-61
2022/03/08 00:52:55;;;;;;;5.45;2.90;;;;;;;-1.84;60.17;99392.78;5072696;28;20025;-63
2022/03/08 00:55:22;;;;;;;7.93;3.58;;;;;;;-1.86;60.85;99405.09;5073027;28;20032;-62
2022/03/08 00:57:48;;;;;;;6.80;3.38;;;;;;;-1.89;59.88;99393.81;5073478;28;20466;-62
2022/03/08 01:00:16;;;;;;;6.18;3.30;;;;;;;-1.96;60.28;99397.53;5072856;28;20039;-58
2022/03/08 01:02:42;;;;;;;6.20;3.47;;;;;;;-2.07;60.16;99397.91;5054911;28;20032;-61
2022/03/08 01:05:08;;;;;;;6.22;3.30;;;;;;;-2.19;60.28;99372.97;5072956;28;20036;-61
2022/03/08 01:07:34;;;;;;;5.40;3.10;;;;;;;-2.14;60.42;99395.59;5073453;28;20103;-62
2022/03/08 01:10:00;;;;;;;7.88;3.60;;;;;;;-2.10;61.13;99408.53;5072804;28;20119;-57
2022/03/08 01:12:26;;;;;;;5.95;3.47;;;;;;;-2.09;61.15;99405.00;5072850;28;20032;-63
2022/03/08 01:14:52;;;;;;;6.45;3.63;;;;;;;-2.09;61.46;99410.25;5072934;28;20363;-63
2022/03/08 01:17:17;;;;;;;7.43;3.58;;;;;;;-2.13;61.29;99407.81;5073171;28;20037;-62
2022/03/08 01:19:43;;;;;;;6.75;3.42;;;;;;;-2.12;60.85;99401.66;5072807;28;20048;-63
2022/03/08 01:22:11;;;;;;;5.85;3.53;;;;;;;-2.42;61.27;99365.06;5072553;28;20432;-61
2022/03/08 01:24:36;;;;;;;5.75;3.58;;;;;;;-2.22;61.00;99398.47;5072425;28;20028;-63
2022/03/08 01:27:02;;;;;;;6.85;3.85;;;;;;;-2.15;60.73;99407.84;5072969;28;20081;-62
2022/03/08 01:29:28;;;;;;;6.57;3.55;;;;;;;-2.13;60.93;99418.28;5072596;28;20467;-60
2022/03/08 01:31:53;;;;;;;7.65;3.90;;;;;;;-2.20;60.54;99413.25;5072495;28;20036;-64
2022/03/08 01:34:19;;;;;;;8.25;3.42;;;;;;;-2.36;61.52;99383.22;5054313;28;20043;-61
2022/03/08 01:36:44;;;;;;;6.53;3.35;;;;;;;-2.17;60.97;99418.41;5072536;28;20478;-63
2022/03/08 01:39:10;;;;;;;5.88;3.38;;;;;;;-2.11;60.33;99419.94;5072223;28;20055;-62
2022/03/08 01:41:36;;;;;;;8.13;3.58;;;;;;;-2.45;60.24;99371.28;5071182;28;20465;-62
2022/03/08 01:44:02;;;;;;;5.97;3.47;;;;;;;-2.34;60.61;99395.34;5072053;28;20024;-53
2022/03/08 01:46:27;;;;;;;8.45;3.88;;;;;;;-2.16;60.77;99424.50;5072593;28;20031;-63
2022/03/08 01:48:53;;;;;;;5.30;3.05;;;;;;;-2.13;60.25;99424.38;5054435;28;20025;-61
2022/03/08 01:51:20;;;;;;;8.70;3.78;;;;;;;-2.18;61.00;99432.41;5071867;28;20036;-58
2022/03/08 01:53:46;;;;;;;8.30;3.78;;;;;;;-2.15;60.85;99430.59;5071622;28;20029;-61
2022/03/08 01:56:13;;;;;;;8.02;3.47;;;;;;;-2.12;60.37;99435.75;5072244;28;20036;-60
2022/03/08 01:58:39;;;;;;;7.70;3.85;;;;;;;-2.13;60.19;99441.91;5071628;28;20549;-62
2022/03/08 02:01:06;;;;;;;6.82;3.35;;;;;;;-2.05;59.55;99437.22;5053937;28;20090;-61
2022/03/08 02:03:32;;;;;;;6.25;3.60;;;;;;;-2.09;59.72;99440.88;5072135;28;20042;-61
2022/03/08 02:05:57;;;;;;;10.20;3.92;;;;;;;-2.34;61.02;99429.44;5071491;28;20442;-62
2022/03/08 02:08:23;;;;;;;9.35;4.15;;;;;;;-2.31;61.36;99452.94;5071699;28;20037;-61
2022/03/08 02:10:51;;;;;;;9.30;4.50;;;;;;;-2.29;61.48;99449.41;5071582;28;20461;-63
2022/03/08 02:13:16;;;;;;;9.27;4.13;;;;;;;-2.29;61.71;99450.28;5071504;28;20025;-62
2022/03/08 02:15:47;;;;;;;8.23;4.30;;;;;;;-2.25;62.25;99454.50;5071557;28;20115;-62
2022/03/08 02:18:13;;;;;;;8.98;4.50;;;;;;;-2.34;62.33;99447.81;5071069;28;20115;-63
2022/03/08 02:20:38;;;;;;;6.90;3.95;;;;;;;-2.21;62.24;99457.91;5071527;28;20380;-62
2022/03/08 02:23:04;;;;;;;8.85;4.25;;;;;;;-2.23;61.95;99447.44;5071300;28;20037;-58
2022/03/08 02:25:29;;;;;;;7.38;3.97;;;;;;;-2.18;61.43;99463.03;5071255;28;20021;-62
2022/03/08 02:27:55;;;;;;;12.77;4.50;;;;;;;-2.17;61.24;99456.88;5071126;28;20032;-62
2022/03/08 02:30:23;;;;;;;8.48;4.45;;;;;;;-2.54;61.76;99417.03;5071405;28;20532;-62
2022/03/08 02:32:49;;;;;;;10.65;4.22;;;;;;;-2.31;62.04;99462.59;5071129;28;20083;-63
2022/03/08 02:35:20;;;;;;;10.40;4.47;;;;;;;-2.34;61.38;99470.56;5071104;28;20035;-63
2022/03/08 02:37:49;;;;;;;7.25;4.38;;;;;;;-2.35;62.06;99474.09;5071474;28;20028;-64
2022/03/08 02:40:20;;;;;;;7.20;4.22;;;;;;;-2.36;61.70;99480.25;5071014;28;20063;-61
2022/03/08 02:42:46;;;;;;;10.18;4.72;;;;;;;-2.39;61.49;99483.81;5071301;28;20029;-63
2022/03/08 02:45:12;;;;;;;8.73;4.38;;;;;;;-2.50;62.10;99478.91;5071597;28;20077;-62
2022/03/08 02:47:38;;;;;;;9.13;4.72;;;;;;;-2.46;62.39;99491.00;5070700;28;20426;-62
2022/03/08 02:50:06;;;;;;;8.38;4.78;;;;;;;-2.43;62.42;99499.69;5071168;28;20039;-62
2022/03/08 02:52:33;;;;;;;9.00;4.93;;;;;;;-2.42;62.14;99502.28;5071357;28;20028;-63
2022/03/08 02:54:58;;;;;;;7.70;4.18;;;;;;;-2.53;61.86;99501.75;5071028;28;20538;-62
2022/03/08 02:57:24;;;;;;;7.78;4.28;;;;;;;-2.47;61.64;99514.69;5070409;28;20029;-62
2022/03/08 02:59:49;;;;;;;7.60;4.78;;;;;;;-2.52;62.32;99500.88;5070526;28;20032;-60
2022/03/08 03:02:15;;;;;;;7.72;3.95;;;;;;;-2.77;62.08;99463.19;5071354;28;20481;-62
2022/03/08 03:04:40;;;;;;;8.27;4.45;;;;;;;-2.48;60.93;99505.94;5070939;28;20062;-61
2022/03/08 03:07:06;;;;;;;8.38;4.70;;;;;;;-2.52;61.50;99509.56;5070627;28;20462;-53
2022/03/08 03:09:32;;;;;;;7.88;4.25;;;;;;;-2.53;61.57;99510.47;5070863;28;20461;-63
2022/03/08 03:11:57;;;;;;;10.43;4.78;;;;;;;-2.54;62.22;99513.13;5071368;28;20109;-62
2022/03/08 03:14:23;;;;;;;7.05;4.40;;;;;;;-2.48;61.57;99524.28;5070911;28;20060;-62
2022/03/08 03:16:48;;;;;;;6.95;4.15;;;;;;;-2.50;61.60;99525.25;5070522;28;20036;-62
2022/03/08 03:19:14;;;;;;;7.07;4.20;;;;;;;-2.45;60.52;99521.56;5070581;28;20029;-63
2022/03/08 03:21:39;;;;;;;8.35;5.13;;;;;;;-2.56;61.46;99523.69;5071177;28;20514;-62
2022/03/08 03:24:05;;;;;;;9.02;4.75;;;;;;;-2.58;62.19;99522.88;5071456;28;20488;-62
2022/03/08 03:26:31;;;;;;;8.73;4.45;;;;;;;-2.81;61.86;99489.50;5070086;28;20028;-57
2022/03/08 03:28:56;;;;;;;6.93;3.92;;;;;;;-2.51;61.32;99545.38;5052352;28;21030;-62
2022/03/08 03:31:22;;;;;;;10.10;4.35;;;;;;;-2.53;61.53;99547.19;5053027;28;20094;-50
2022/03/08 03:33:47;;;;;;;8.38;4.75;;;;;;;-2.55;61.62;99542.88;5071180;28;20441;-61
2022/03/08 03:36:13;;;;;;;11.63;5.00;;;;;;;-2.50;61.88;99551.47;5070354;28;20323;-60
2022/03/08 03:38:38;;;;;;;9.00;4.80;;;;;;;-2.51;61.49;99555.00;5070546;28;20032;-60
2022/03/08 03:41:04;;;;;;;7.03;4.60;;;;;;;-2.47;60.74;99556.63;5070994;28;20107;-58
2022/03/08 03:43:30;;;;;;;7.35;4.63;;;;;;;-2.55;61.43;99558.59;5070857;28;20094;-58
2022/03/08 03:45:55;;;;;;;8.73;5.15;;;;;;;-2.56;62.02;99563.00;5070136;28;20039;-63
2022/03/08 03:48:21;;;;;;;7.70;4.88;;;;;;;-2.51;61.85;99571.56;5052239;28;20032;-60
2022/03/08 03:50:46;;;;;;;8.27;4.90;;;;;;;-2.45;61.09;99570.53;5070633;28;20032;-60
2022/03/08 03:53:12;;;;;;;11.18;5.25;;;;;;;-2.71;61.47;99526.78;5070412;28;20033;-57
2022/03/08 03:55:37;;;;;;;10.18;5.25;;;;;;;-2.47;61.51;99567.09;5070373;28;20086;-54
2022/03/08 03:58:03;;;;;;;8.90;4.80;;;;;;;-2.99;61.82;99485.69;5069829;28;20115;-54
2022/03/08 04:00:29;;;;;;;9.13;4.93;;;;;;;-2.49;62.01;99567.16;5069885;28;20040;-56
2022/03/08 04:02:54;;;;;;;8.30;4.45;;;;;;;-2.40;62.02;99573.03;5051719;28;20032;-57
2022/03/08 04:05:20;;;;;;;9.27;5.60;;;;;;;-2.42;61.34;99553.84;5053606;28;20089;-59
2022/03/08 04:07:46;;;;;;;8.77;5.10;;;;;;;-2.37;61.24;99575.53;5054259;28;20025;-57
2022/03/08 04:10:13;;;;;;;9.15;4.90;;;;;;;-2.37;61.39;99579.00;5074069;28;20032;-58
2022/03/08 04:12:39;;;;;;;7.90;4.55;;;;;;;-2.38;61.70;99574.69;5073564;28;20033;-57
2022/03/08 04:15:05;;;;;;;8.95;5.07;;;;;;;-2.37;61.26;99575.53;5073867;28;20474;-54
2022/03/08 04:17:30;;;;;;;9.60;5.30;;;;;;;-2.39;61.65;99572.13;5073737;28;20143;-59
2022/03/08 04:19:56;;;;;;;10.15;5.60;;;;;;;-2.29;61.00;99588.41;5073395;28;20466;-55
2022/03/08 04:22:21;;;;;;;9.15;5.43;;;;;;;-2.55;60.71;99543.75;5073367;28;20031;-58
2022/03/08 04:24:47;;;;;;;10.90;5.68;;;;;;;-2.26;60.26;99583.06;5074083;28;20031;-53
2022/03/08 04:27:12;;;;;;;10.02;5.18;;;;;;;-2.37;60.69;99605.22;5073471;28;20028;-58
2022/03/08 04:29:38;;;;;;;8.80;5.55;;;;;;;-2.42;61.39;99586.16;5073501;28;20056;-60
2022/03/08 04:32:04;;;;;;;8.85;5.15;;;;;;;-2.58;60.78;99567.44;5073718;28;20048;-60
2022/03/08 04:34:30;;;;;;;10.13;5.18;;;;;;;-2.34;61.43;99609.53;5073209;28;20111;-63
2022/03/08 04:36:56;;;;;;;8.18;4.72;;;;;;;-2.23;60.75;99604.81;5073218;28;20076;-62
2022/03/08 04:39:21;;;;;;;9.68;5.82;;;;;;;-2.35;60.81;99616.53;5073556;28;20123;-65
2022/03/08 04:41:48;;;;;;;12.93;6.03;;;;;;;-2.27;60.08;99611.06;5056059;28;20117;-61
2022/03/08 04:44:14;;;;;;;9.63;5.72;;;;;;;-2.47;61.27;99623.00;5038377;28;20094;-54
2022/03/08 04:46:40;;;;;;;11.75;5.55;;;;;;;-2.45;61.14;99628.22;5073523;28;20478;-58
2022/03/08 04:49:06;;;;;;;10.35;5.80;;;;;;;-2.49;61.46;99613.50;5073657;28;20066;-60
2022/03/08 04:51:31;;;;;;;9.25;5.57;;;;;;;-2.42;61.50;99622.00;5073130;28;20715;-61
2022/03/08 04:53:57;;;;;;;9.88;5.45;;;;;;;-2.40;60.99;99630.72;5038260;28;20020;-60
2022/03/08 04:56:23;;;;;;;9.55;5.63;;;;;;;-2.39;61.66;99637.66;5073241;28;20036;-60
2022/03/08 04:58:48;;;;;;;9.40;5.00;;;;;;;-2.35;61.44;99639.28;5073199;28;20036;-61
2022/03/08 05:01:15;;;;;;;12.32;5.40;;;;;;;-2.28;61.15;99643.44;5072688;28;20106;-56
2022/03/08 05:03:41;;;;;;;9.35;5.20;;;;;;;-2.26;60.72;99631.13;5072692;28;20041;-62
2022/03/08 05:06:06;;;;;;;10.05;5.22;;;;;;;-2.17;60.54;99645.72;5072847;28;20055;-59
2022/03/08 05:08:32;;;;;;;11.23;5.07;;;;;;;-2.21;60.60;99650.19;5073088;28;20042;-61
2022/03/08 05:10:58;;;;;;;11.30;5.88;;;;;;;-2.23;61.18;99653.78;5054744;28;20028;-59
2022/03/08 05:13:24;;;;;;;9.50;5.15;;;;;;;-2.20;61.32;99662.41;5072336;28;20029;-61
2022/03/08 05:15:50;;;;;;;9.07;5.25;;;;;;;-2.31;60.60;99631.25;5072722;28;20074;-59
2022/03/08 05:18:16;;;;;;;10.88;5.70;;;;;;;-2.14;60.53;99660.53;5055143;28;20489;-61
2022/03/08 05:20:42;;;;;;;11.85;5.80;;;;;;;-2.11;60.50;99665.66;5072850;28;20038;-59
2022/03/08 05:23:08;;;;;;;9.55;5.45;;;;;;;-2.17;59.95;99648.34;5072219;28;20111;-57
2022/03/08 05:25:34;;;;;;;9.48;5.05;;;;;;;-2.12;60.15;99666.56;5072507;28;20904;-60
2022/03/08 05:27:59;;;;;;;10.43;5.65;;;;;;;-2.18;60.52;99673.69;5054998;28;20119;-60
2022/03/08 05:30:25;;;;;;;10.23;5.68;;;;;;;-2.39;60.30;99641.13;5072310;28;20044;-57
2022/03/08 05:32:52;;;;;;;10.40;5.40;;;;;;;-2.17;61.09;99685.06;5071998;28;20518;-56
2022/03/08 05:35:18;;;;;;;10.07;5.35;;;;;;;-2.20;60.66;99665.03;5054382;28;20114;-56
2022/03/08 05:37:44;;;;;;;10.77;5.32;;;;;;;-2.07;61.11;99680.41;5072785;28;20066;-56
2022/03/08 05:40:10;;;;;;;9.13;4.85;;;;;;;-2.11;60.36;99679.63;5072360;28;20029;-61
2022/03/08 05:42:38;;;;;;;9.02;5.28;;;;;;;-2.03;60.18;99692.50;5053899;28;20123;-60
2022/03/08 05:45:05;;;;;;;10.50;5.32;;;;;;;-1.82;59.22;99690.13;5072016;28;20108;-57
2022/03/08 05:47:31;;;;;;;11.38;5.32;;;;;;;-2.17;59.84;99637.84;5072192;28;20025;-59
2022/03/08 05:49:56;;;;;;;11.35;5.72;;;;;;;-1.82;59.28;99684.88;5071510;28;20036;-60
2022/03/08 05:52:22;;;;;;;12.38;5.80;;;;;;;-1.88;59.91;99691.19;5053386;28;20416;-60
2022/03/08 05:54:47;;;;;;;12.32;5.80;;;;;;;-1.81;60.17;99683.97;5071646;28;20034;-61
2022/03/08 05:57:13;;;;;;;8.70;4.50;;;;;;;-1.56;58.96;99698.94;5071312;28;20051;-58
2022/03/08 05:59:38;;;;;;;10.75;5.45;;;;;;;-1.52;58.67;99697.91;5071262;28;20086;-61
2022/03/08 06:02:04;;;;;;;10.82;5.93;;;;;;;-1.55;59.14;99698.91;5037067;28;20028;-61
2022/03/08 06:04:29;;;;;;;8.43;5.40;;;;;;;-1.48;58.69;99708.28;5071591;28;20050;-60
2022/03/08 06:06:55;;;;;;;9.48;5.22;;;;;;;-1.49;58.80;99714.44;5071688;28;20020;-61
2022/03/08 06:09:20;;;;;;;11.10;5.20;;;;;;;-1.44;59.30;99724.81;5071226;28;20090;-59
2022/03/08 06:11:46;;;;;;;10.13;5.25;;;;;;;-1.38;58.44;99713.22;5072231;28;20382;-58
2022/03/08 06:14:11;;;;;;;14.88;4.95;;;;;;;-1.53;58.95;99711.94;5071396;28;20027;-60
2022/03/08 06:16:37;;;;;;;11.15;5.03;;;;;;;-1.59;58.78;99706.00;5053166;28;20128;-60
2022/03/08 06:19:02;;;;;;;8.38;5.05;;;;;;;-1.53;58.54;99718.09;5053710;28;20032;-60
2022/03/08 06:21:28;;;;;;;8.50;4.65;;;;;;;-1.61;58.47;99726.19;5053685;28;20032;-60
2022/03/08 06:23:53;;;;;;;10.90;5.45;;;;;;;-1.63;58.55;99732.41;5070924;28;20032;-60
2022/03/08 06:26:19;;;;;;;8.05;4.78;;;;;;;-1.55;59.04;99732.16;5053648;28;20035;-59
2022/03/08 06:28:44;;;;;;;10.68;5.30;;;;;;;-1.68;58.13;99695.81;5053034;28;20504;-57
2022/03/08 06:31:10;;;;;;;11.45;5.22;;;;;;;-1.51;57.97;99731.13;5048446;28;20094;-59
2022/03/08 06:33:36;;;;;;;12.00;5.10;;;;;;;-1.47;58.77;99741.50;5065230;28;20254;-58
2022/03/08 06:36:01;;;;;;;8.45;4.75;;;;;;;-1.41;57.74;99748.34;5052123;28;20025;-57
2022/03/08 06:38:27;;;;;;;9.48;5.55;;;;;;;-1.37;57.72;99752.56;5052504;28;20079;-63
2022/03/08 06:40:52;;;;;;;7.90;4.60;;;;;;;-1.35;56.80;99756.00;5069716;28;20051;-60
2022/03/08 06:43:19;;;;;;;4.90;2.33;;;;;;;-1.18;56.75;99770.38;5070871;28;20074;-61
2022/03/08 06:45:44;;;;;;;7.93;5.15;;;;;;;-1.35;56.62;99769.13;5052830;28;20036;-58
2022/03/08 06:48:11;;;;;;;9.40;4.97;;;;;;;-1.62;57.88;99763.00;5069467;28;20024;-59
2022/03/08 06:50:36;;;;;;;9.32;4.78;;;;;;;-1.59;57.36;99766.38;5068894;28;20032;-61
2022/03/08 06:53:02;;;;;;;9.07;4.88;;;;;;;-1.57;57.50;99768.09;5051764;28;20033;-60
2022/03/08 06:55:28;;;;;;;9.23;5.35;;;;;;;-1.46;57.04;99772.09;5050338;28;20025;-61
2022/03/08 06:57:54;;;;;;;6.35;4.40;;;;;;;-1.49;57.38;99779.22;5065362;28;20115;-60
2022/03/08 07:00:20;;;;;;;7.78;4.65;;;;;;;-1.55;57.30;99772.41;5068598;28;20115;-60
2022/03/08 07:02:46;;;;;;;9.15;4.78;;;;;;;-2.07;56.44;99686.50;5070025;28;20040;-56
2022/03/08 07:05:11;;;;;;;10.45;4.68;;;;;;;-1.56;56.25;99767.19;5069459;28;20025;-60
2022/03/08 07:07:38;;;;;;;8.52;4.35;;;;;;;-1.46;56.33;99787.88;5068515;28;20885;-58
2022/03/08 07:10:05;;;;;;;6.47;4.35;;;;;;;-1.47;56.18;99785.28;5048148;28;20028;-61
2022/03/08 07:12:31;;;;;;;8.63;4.97;;;;;;;-1.48;56.34;99784.44;5069472;28;20098;-63
2022/03/08 07:14:57;;;;;;;8.10;4.65;;;;;;;-1.33;56.37;99782.19;5069705;28;20450;-61
2022/03/08 07:17:22;;;;;;;7.47;4.68;;;;;;;-1.16;55.62;99792.19;5068924;28;20366;-63
2022/03/08 07:19:48;;;;;;;9.93;4.60;;;;;;;-1.03;54.57;99782.13;5051513;28;20431;-66
2022/03/08 07:22:15;;;;;;;11.30;5.50;;;;;;;-1.11;54.41;99778.88;5053387;28;20055;-64
2022/03/08 07:24:41;;;;;;;8.15;4.82;;;;;;;-1.14;54.09;99778.97;5070211;28;20093;-64
2022/03/08 07:27:08;;;;;;;7.80;4.50;;;;;;;-1.25;54.77;99792.47;5050242;28;20458;-64
2022/03/08 07:29:35;;;;;;;8.45;4.70;;;;;;;-1.12;54.64;99791.19;5069989;28;20049;-62
2022/03/08 07:32:01;;;;;;;11.25;4.97;;;;;;;-1.04;54.04;99799.66;5070567;28;20037;-63
2022/03/08 07:34:26;;;;;;;6.70;4.70;;;;;;;-1.11;53.64;99787.63;5070941;28;20432;-63
2022/03/08 07:36:52;;;;;;;7.90;4.80;;;;;;;-1.22;53.79;99773.97;5069462;28;20032;-61
2022/03/08 07:39:18;;;;;;;9.10;4.35;;;;;;;-1.04;53.62;99807.53;5070170;28;20131;-56
2022/03/08 07:41:44;;;;;;;7.05;4.30;;;;;;;-1.09;53.81;99795.44;5074494;28;20470;-62
2022/03/08 07:44:09;;;;;;;10.02;4.43;;;;;;;-1.04;53.28;99807.53;5074305;28;20051;-62
2022/03/08 07:46:36;;;;;;;8.13;4.15;;;;;;;-0.99;53.63;99814.41;5073952;28;20501;-64
2022/03/08 07:49:02;;;;;;;8.77;4.40;;;;;;;-1.02;53.53;99810.13;5074115;28;20043;-65
2022/03/08 07:51:28;;;;;;;8.15;4.68;;;;;;;-1.11;53.45;99807.78;5074127;28;20024;-63
2022/03/08 07:53:54;;;;;;;10.80;4.78;;;;;;;-1.12;53.54;99821.81;5073151;28;20046;-62
2022/03/08 07:56:20;;;;;;;7.00;4.70;;;;;;;-0.99;52.08;99822.28;5073585;28;20458;-62
2022/03/08 07:58:46;;;;;;;9.73;4.97;;;;;;;-1.14;53.32;99827.16;5073983;28;20490;-64
2022/03/08 08:01:12;;;;;;;8.63;4.60;;;;;;;-1.33;53.68;99788.34;5055275;28;20025;-62
2022/03/08 08:03:38;;;;;;;8.15;4.13;;;;;;;-0.98;52.95;99816.13;5073175;28;20052;-63
2022/03/08 08:06:04;;;;;;;9.80;4.72;;;;;;;-0.84;51.99;99827.03;5073744;28;20029;-65
2022/03/08 08:08:30;;;;;;;11.73;4.78;;;;;;;-0.80;52.24;99827.81;5071851;28;20174;-64
2022/03/08 08:10:55;;;;;;;13.77;6.07;;;;;;;-0.74;52.00;99844.22;5073356;28;20072;-66
2022/03/08 08:13:21;;;;;;;11.23;5.90;;;;;;;-0.73;51.71;99826.69;5073451;28;20103;-60
2022/03/08 08:15:47;;;;;;;25.65;8.23;;;;;;;-0.84;52.01;99834.06;5073998;28;20028;-62
2022/03/08 08:18:13;;;;;;;23.40;8.07;;;;;;;-0.92;52.29;99831.72;5055368;28;20466;-64
2022/03/08 08:20:39;;;;;;;12.73;5.78;;;;;;;-0.95;52.12;99837.06;5055471;28;20042;-63
2022/03/08 08:23:05;;;;;;;9.57;4.93;;;;;;;-1.11;51.96;99829.69;5073479;28;20032;-64
2022/03/08 08:25:31;;;;;;;8.73;4.68;;;;;;;-1.37;51.94;99812.97;5055090;28;20389;-65
2022/03/08 08:27:57;;;;;;;9.77;4.82;;;;;;;-1.13;51.86;99844.63;5071615;28;20032;-63
2022/03/08 08:30:22;;;;;;;24.65;8.00;;;;;;;-1.09;51.34;99848.00;5071265;28;20033;-63
2022/03/08 08:32:50;;;;;;;11.27;5.75;;;;;;;-1.11;52.18;99863.84;5073634;28;20044;-63
2022/03/08 08:35:17;;;;;;;11.40;5.30;;;;;;;-1.07;51.46;99857.56;5055200;28;20527;-63
2022/03/08 08:37:42;;;;;;;8.27;5.13;;;;;;;-1.15;51.81;99859.59;5054787;28;20060;-63
2022/03/08 08:40:09;;;;;;;9.77;5.20;;;;;;;-1.04;51.69;99872.38;5073614;28;20071;-64
2022/03/08 08:42:35;;;;;;;12.20;5.20;;;;;;;-1.03;51.10;99859.19;5073139;28;20129;-64
2022/03/08 08:45:02;;;;;;;12.10;5.50;;;;;;;-1.29;51.93;99862.66;5072757;28;20063;-62
2022/03/08 08:47:29;;;;;;;11.98;5.13;;;;;;;-1.69;51.86;99827.94;5073493;28;20103;-63
2022/03/08 08:49:55;;;;;;;9.13;5.18;;;;;;;-1.45;52.59;99873.63;5073554;28;20132;-63
2022/03/08 08:52:20;;;;;;;10.00;4.95;;;;;;;-1.35;52.08;99873.31;5073180;28;20058;-63
2022/03/08 08:54:47;;;;;;;11.13;5.10;;;;;;;-1.22;51.62;99871.19;5072856;28;20351;-64
2022/03/08 08:57:13;;;;;;;8.10;5.05;;;;;;;-1.08;52.04;99876.03;5073327;28;20492;-63
2022/03/08 08:59:39;;;;;;;9.18;5.18;;;;;;;-1.04;51.01;99878.50;5073294;28;20098;-63
2022/03/08 09:02:04;;;;;;;9.38;5.22;;;;;;;-0.96;50.54;99867.72;5054783;28;20433;-63
2022/03/08 09:04:30;;;;;;;10.27;5.32;;;;;;;-0.78;50.18;99895.19;5072713;28;20081;-64
2022/03/08 09:06:55;;;;;;;12.65;8.05;;;;;;;-0.76;49.75;99889.91;5055337;28;20139;-63
2022/03/08 09:09:21;;;;;;;8.13;5.00;;;;;;;-0.65;49.81;99881.66;5073787;28;20024;-64
2022/03/08 09:11:46;;;;;;;9.93;5.68;;;;;;;-0.44;49.25;99899.34;5072571;28;20048;-64
2022/03/08 09:14:12;;;;;;;9.55;5.20;;;;;;;-0.36;49.20;99900.84;5072713;28;20039;-63
2022/03/08 09:16:37;;;;;;;8.35;4.72;;;;;;;-0.42;48.91;99901.06;5072819;28;20111;-63
2022/03/08 09:19:03;;;;;;;9.63;5.22;;;;;;;-0.53;49.19;99899.63;5073077;28;20048;-63
2022/03/08 09:21:29;;;;;;;8.82;5.10;;;;;;;-0.90;48.54;99854.38;5072494;28;20067;-64
2022/03/08 09:23:54;;;;;;;8.43;5.10;;;;;;;-0.67;48.85;99896.63;5054539;28;20036;-63
2022/03/08 09:26:20;;;;;;;10.13;5.40;;;;;;;-0.80;49.65;99902.25;5054967;28;20103;-63
2022/03/08 09:28:45;;;;;;;9.98;5.35;;;;;;;-0.86;49.58;99902.47;5055091;28;20052;-63
2022/03/08 09:31:12;;;;;;;9.88;5.35;;;;;;;-0.90;49.38;99908.75;5072578;28;20512;-63
2022/03/08 09:33:38;;;;;;;7.72;4.60;;;;;;;-0.89;50.12;99906.03;5072049;28;20036;-64
2022/03/08 09:36:04;;;;;;;7.93;4.70;;;;;;;-0.91;49.80;99905.25;5072543;28;20033;-63
2022/03/08 09:38:29;;;;;;;8.45;4.78;;;;;;;-0.79;49.24;99913.66;5072541;28;20079;-62
2022/03/08 09:40:55;;;;;;;9.07;5.28;;;;;;;-0.65;49.25;99915.84;5072137;28;20486;-63
2022/03/08 09:43:20;;;;;;;9.68;5.38;;;;;;;-0.56;49.06;99912.03;5054623;28;20048;-63
2022/03/08 09:45:46;;;;;;;9.98;5.43;;;;;;;-0.48;48.34;99913.50;5054118;28;20058;-63
2022/03/08 09:48:12;;;;;;;8.20;5.07;;;;;;;-0.44;48.22;99916.88;5053898;28;20032;-64
2022/03/08 09:50:38;;;;;;;8.80;4.70;;;;;;;-0.46;48.01;99927.47;5071979;28;20073;-62
2022/03/08 09:53:04;;;;;;;6.88;4.30;;;;;;;-0.58;47.83;99880.53;5071999;28;20119;-63
2022/03/08 09:55:30;;;;;;;6.03;3.00;;;;;;;-0.12;48.30;99919.31;5071792;28;20056;-63
2022/03/08 09:57:56;;;;;;;10.40;4.88;;;;;;;-0.35;47.42;99924.47;5071745;28;20397;-63
2022/03/08 10:00:23;;;;;;;9.15;4.55;;;;;;;-0.43;48.26;99937.00;5054079;28;20044;-64
2022/03/08 10:02:55;;;;;;;8.52;5.10;;;;;;;-0.77;47.74;99891.66;5070219;28;20036;-62
2022/03/08 10:05:29;;;;;;;7.50;5.22;;;;;;;-0.66;48.28;99919.38;5071742;28;20482;-64
2022/03/08 10:08:10;;;;;;;9.65;5.47;;;;;;;-0.77;48.53;99924.97;5054383;28;20074;-63
2022/03/08 10:10:58;;;;;;;8.50;5.07;;;;;;;-0.94;49.10;99929.00;5072393;28;20032;-64
2022/03/08 10:13:35;;;;;;;8.57;4.75;;;;;;;-1.17;49.04;99924.47;5071826;28;20041;-64
2022/03/08 10:16:08;;;;;;;8.50;4.78;;;;;;;-1.18;49.41;99941.13;5071627;28;20142;-64
2022/03/08 10:18:36;;;;;;;8.20;4.90;;;;;;;-1.23;49.45;99936.00;5054162;28;20055;-63
2022/03/08 10:21:02;;;;;;;8.25;4.90;;;;;;;-1.28;49.05;99945.81;5071518;28;20535;-65
2022/03/08 10:23:27;;;;;;;9.23;5.30;;;;;;;-1.35;49.52;99937.25;5071474;28;20032;-64
2022/03/08 10:26:03;;;;;;;9.15;5.10;;;;;;;-1.22;49.40;99948.25;5054146;28;20029;-64
2022/03/08 10:28:29;;;;;;;8.82;4.95;;;;;;;-1.17;49.59;99945.50;5071133;28;20678;-63
2022/03/08 10:30:54;;;;;;;10.77;5.45;;;;;;;-1.14;49.77;99948.00;5071246;28;20040;-63
2022/03/08 10:33:34;;;;;;;9.27;5.13;;;;;;;-1.13;48.93;99949.75;5071287;28;20094;-63
2022/03/08 10:35:59;;;;;;;7.65;4.88;;;;;;;-1.43;49.61;99891.97;5071478;28;20041;-64
2022/03/08 10:38:25;;;;;;;7.40;4.63;;;;;;;-1.03;49.46;99938.03;5071173;28;20024;-64
2022/03/08 10:40:50;;;;;;;7.82;4.82;;;;;;;-0.92;49.57;99936.84;5071043;28;20041;-64
2022/03/08 10:43:17;;;;;;;10.82;5.13;;;;;;;-0.66;48.37;99940.41;5053680;28;20097;-63
2022/03/08 10:45:46;;;;;;;13.05;4.88;;;;;;;-0.54;48.25;99965.44;5053396;28;20036;-63
2022/03/08 10:48:17;;;;;;;8.85;5.03;;;;;;;-0.49;47.79;99963.53;5070752;28;20051;-63
2022/03/08 10:50:43;;;;;;;10.40;5.38;;;;;;;-0.40;47.59;99962.38;5070882;28;20032;-63
2022/03/08 10:53:11;;;;;;;9.23;4.60;;;;;;;-0.46;47.00;99932.72;5071532;28;20039;-63
2022/03/08 10:55:45;;;;;;;9.13;5.43;;;;;;;-1.14;47.85;99887.59;5070975;28;20029;-62
2022/03/08 10:58:12;;;;;;;9.70;5.43;;;;;;;-1.06;49.08;99953.88;5052996;28;20485;-63
2022/03/08 11:00:40;;;;;;;9.15;5.53;;;;;;;-1.01;49.21;99967.75;5070617;28;20105;-62
2022/03/08 11:03:12;;;;;;;9.73;5.40;;;;;;;-0.95;49.26;99960.59;5053240;28;20085;-62
2022/03/08 11:05:46;;;;;;;7.90;4.75;;;;;;;-0.95;48.75;99960.59;5071030;28;20029;-63
2022/03/08 11:08:13;;;;;;;10.07;5.20;;;;;;;-0.92;49.23;99957.88;5070570;28;20025;-62
2022/03/08 11:10:40;;;;;;;8.02;4.95;;;;;;;-0.79;48.78;99935.53;5070580;28;20434;-62
2022/03/08 11:13:06;;;;;;;9.63;4.75;;;;;;;-0.53;47.98;99944.34;5070855;28;20029;-62
2022/03/08 11:15:35;;;;;;;12.52;5.68;;;;;;;-0.34;48.24;99967.41;5053191;28;20025;-62
2022/03/08 11:18:02;;;;;;;7.88;4.93;;;;;;;-0.23;47.87;99959.16;5070488;28;20033;-63
2022/03/08 11:20:29;;;;;;;9.98;4.90;;;;;;;-0.12;48.01;99957.03;5070948;28;20028;-64
2022/03/08 11:22:57;;;;;;;10.43;4.78;;;;;;;0.08;46.78;99969.50;5071123;28;20432;-64
2022/03/08 11:25:32;;;;;;;11.35;5.45;;;;;;;0.16;46.31;99968.38;5053024;28;20134;-63
2022/03/08 11:27:57;;;;;;;9.38;5.32;;;;;;;0.08;46.39;99974.78;5070730;28;20478;-64